createdAt,value
2018-08-18T00:00:20.757Z,17.90
2018-08-18T00:02:49.434Z,17.60
2018-08-18T00:05:18.517Z,18.23
2018-08-18T00:07:47.258Z,17.80
2018-08-18T00:10:18.653Z,17.50
2018-08-18T00:12:47.864Z,19.10
2018-08-18T00:15:16.308Z,17.40
2018-08-18T00:17:44.868Z,15.70
2018-08-18T00:20:18.564Z,17.53
2018-08-18T00:22:47.292Z,19.80
2018-08-18T00:25:15.845Z,17.33
2018-08-18T00:27:44.354Z,16.80
2018-08-18T00:30:18.311Z,17.63
2018-08-18T00:32:46.753Z,17.47
2018-08-18T00:35:15.270Z,17.07
2018-08-18T00:37:43.762Z,16.80
2018-08-18T00:40:12.719Z,15.77
2018-08-18T00:42:41.564Z,18.03
2018-08-18T00:45:12.262Z,17.57
2018-08-18T00:47:41.933Z,18.50
2018-08-18T00:50:11.272Z,16.43
2018-08-18T00:52:39.727Z,17.33
2018-08-18T00:55:08.235Z,18.00
2018-08-18T00:57:36.680Z,18.40
2018-08-18T01:00:06.601Z,18.50
2018-08-18T01:02:35.477Z,18.37
2018-08-18T01:05:04.980Z,16.87
2018-08-18T01:07:33.450Z,19.10
2018-08-18T01:10:02.766Z,17.93
2018-08-18T01:12:31.566Z,17.60
2018-08-18T01:14:59.994Z,19.13
2018-08-18T01:17:28.363Z,18.60
2018-08-18T01:19:58.168Z,18.03
2018-08-18T01:22:26.631Z,18.37
2018-08-18T01:24:55.048Z,17.40
2018-08-18T01:27:23.668Z,17.50
2018-08-18T01:30:06.889Z,15.40
2018-08-18T01:32:35.301Z,18.10
2018-08-18T01:35:04.008Z,16.07
2018-08-18T01:37:33.169Z,16.40
2018-08-18T01:40:01.835Z,17.07
2018-08-18T01:42:32.385Z,16.73
2018-08-18T01:45:00.874Z,17.77
2018-08-18T01:47:29.628Z,16.40
2018-08-18T01:50:04.101Z,17.10
2018-08-18T01:52:33.407Z,16.87
2018-08-18T01:55:01.842Z,17.30
2018-08-18T01:57:30.328Z,16.20
2018-08-18T01:59:59.243Z,16.07
2018-08-18T02:02:28.700Z,18.10
2018-08-18T02:05:05.790Z,16.33
2018-08-18T02:07:34.520Z,16.13
2018-08-18T02:10:03.181Z,18.10
2018-08-18T02:12:31.638Z,16.20
2018-08-18T02:15:01.066Z,18.53
2018-08-18T02:17:31.473Z,15.57
2018-08-18T02:20:00.309Z,17.03
2018-08-18T02:22:29.514Z,17.53
2018-08-18T02:24:57.988Z,18.33
2018-08-18T02:27:27.276Z,18.37
2018-08-18T02:30:07.957Z,18.03
2018-08-18T02:32:38.032Z,17.30
2018-08-18T02:35:07.384Z,18.63
2018-08-18T02:37:35.942Z,18.63
2018-08-18T02:40:08.856Z,18.30
2018-08-18T02:42:37.225Z,18.60
2018-08-18T02:45:06.986Z,18.00
2018-08-18T02:47:35.524Z,18.03
2018-08-18T02:50:04.717Z,18.10
2018-08-18T02:52:34.876Z,18.60
2018-08-18T02:55:04.654Z,19.43
2018-08-18T02:57:35.283Z,19.23
2018-08-18T03:00:06.129Z,22.30
2018-08-18T03:02:34.672Z,21.40
2018-08-18T03:05:03.186Z,20.77
2018-08-18T03:07:34.869Z,23.10
2018-08-18T03:10:11.217Z,20.77
2018-08-18T03:12:45.603Z,20.73
2018-08-18T03:15:58.908Z,21.83
2018-08-18T03:18:44.852Z,21.10
2018-08-18T03:21:13.454Z,22.70
2018-08-18T03:23:53.127Z,22.90
2018-08-18T03:26:26.141Z,20.47
2018-08-18T03:28:54.812Z,20.70
2018-08-18T03:31:23.245Z,21.30
2018-08-18T03:33:51.733Z,21.60
2018-08-18T03:36:27.572Z,20.00
2018-08-18T03:38:56.752Z,18.03
2018-08-18T03:41:26.295Z,18.40
2018-08-18T03:43:55.576Z,19.87
2018-08-18T03:46:24.025Z,19.90
2018-08-18T03:48:52.993Z,20.90
2018-08-18T03:51:28.671Z,21.10
2018-08-18T03:53:57.367Z,21.90
2018-08-18T03:56:25.952Z,21.47
2018-08-18T03:58:56.604Z,22.90
2018-08-18T04:02:01.590Z,23.80
2018-08-18T04:04:33.208Z,22.60
2018-08-18T04:07:02.639Z,23.37
2018-08-18T04:09:34.280Z,22.87
2018-08-18T04:12:04.873Z,23.17
2018-08-18T04:14:38.301Z,22.70
2018-08-18T04:17:38.393Z,24.57
2018-08-18T04:20:07.286Z,23.27
2018-08-18T04:22:35.733Z,26.07
2018-08-18T04:25:05.485Z,25.40
2018-08-18T04:27:43.219Z,25.50
2018-08-18T04:30:14.863Z,27.27
2018-08-18T04:32:50.564Z,24.13
2018-08-18T04:35:21.089Z,27.83
2018-08-18T04:37:50.113Z,26.27
2018-08-18T04:40:19.009Z,26.50
2018-08-18T04:42:47.724Z,25.03
2018-08-18T04:45:17.912Z,24.93
2018-08-18T04:47:47.355Z,23.67
2018-08-18T04:50:15.815Z,22.07
2018-08-18T04:52:44.453Z,22.40
2018-08-18T04:55:14.393Z,24.57
2018-08-18T04:57:42.974Z,26.60
2018-08-18T05:00:12.993Z,26.30
2018-08-18T05:02:46.665Z,25.17
2018-08-18T05:05:15.980Z,24.47
2018-08-18T05:07:48.608Z,22.87
2018-08-18T05:10:19.221Z,23.20
2018-08-18T05:12:48.049Z,24.07
2018-08-18T05:15:17.632Z,25.60
2018-08-18T05:17:48.157Z,25.60
2018-08-18T05:20:19.855Z,26.07
2018-08-18T05:22:48.311Z,25.37
2018-08-18T05:25:17.810Z,23.73
2018-08-18T05:27:46.274Z,27.83
2018-08-18T05:30:14.724Z,30.73
2018-08-18T05:32:43.201Z,30.87
2018-08-18T05:35:11.771Z,32.07
2018-08-18T05:37:40.245Z,32.37
2018-08-18T05:40:08.764Z,31.77
2018-08-18T05:42:37.300Z,32.63
2018-08-18T05:45:20.977Z,30.80
2018-08-18T05:47:50.120Z,28.20
2018-08-18T05:50:18.559Z,30.70
2018-08-18T05:52:47.076Z,27.90
2018-08-18T05:55:15.645Z,31.43
2018-08-18T05:57:44.131Z,33.63
2018-08-18T06:00:20.492Z,32.00
2018-08-18T06:02:54.427Z,30.40
2018-08-18T06:05:23.054Z,31.00
2018-08-18T06:07:51.730Z,31.90
2018-08-18T06:10:20.285Z,32.60
2018-08-18T06:12:48.701Z,30.57
2018-08-18T06:15:17.275Z,29.53
2018-08-18T06:17:45.715Z,28.23
2018-08-18T06:20:14.242Z,26.07
2018-08-18T06:22:42.774Z,27.73
2018-08-18T06:25:11.457Z,27.10
2018-08-18T06:27:41.144Z,29.80
2018-08-18T06:30:09.940Z,27.83
2018-08-18T06:32:38.676Z,29.23
2018-08-18T06:35:07.964Z,27.30
2018-08-18T06:37:36.346Z,27.90
2018-08-18T06:40:05.118Z,28.60
2018-08-18T06:42:40.014Z,30.33
2018-08-18T06:45:13.666Z,30.87
2018-08-18T06:47:42.754Z,30.33
2018-08-18T06:50:13.321Z,31.20
2018-08-18T06:52:42.109Z,31.17
2018-08-18T06:55:18.407Z,30.07
2018-08-18T06:57:52.285Z,29.83
2018-08-18T07:00:22.293Z,29.60
2018-08-18T07:02:51.589Z,30.93
2018-08-18T07:05:20.680Z,33.70
2018-08-18T07:07:50.013Z,30.70
2018-08-18T07:10:27.565Z,30.53
2018-08-18T07:13:02.515Z,32.10
2018-08-18T07:15:32.718Z,33.90
2018-08-18T07:18:01.701Z,34.57
2018-08-18T07:20:30.262Z,34.57
2018-08-18T07:22:58.817Z,30.83
2018-08-18T07:25:27.667Z,34.00
2018-08-18T07:28:01.571Z,32.67
2018-08-18T07:30:31.321Z,33.73
2018-08-18T07:46:06.955Z,30.40
2018-08-18T07:48:35.557Z,26.20
2018-08-18T07:51:04.005Z,27.70
2018-08-18T07:53:32.547Z,28.70
2018-08-18T07:56:00.924Z,24.63
2018-08-18T07:58:29.414Z,28.33
2018-08-18T08:00:59.237Z,24.63
2018-08-18T08:03:27.753Z,23.10
2018-08-18T08:05:56.289Z,22.47
2018-08-18T08:08:25.015Z,24.10
2018-08-18T08:10:58.629Z,23.70
2018-08-18T08:13:27.168Z,22.00
2018-08-18T08:15:55.641Z,22.97
2018-08-18T08:18:25.416Z,26.87
2018-08-18T08:20:53.982Z,24.47
2018-08-18T08:23:22.512Z,23.60
2018-08-18T08:25:51.021Z,23.77
2018-08-18T08:28:19.543Z,24.07
2018-08-18T08:30:47.969Z,22.50
2018-08-18T08:33:30.564Z,22.27
2018-08-18T08:35:59.108Z,22.50
2018-08-18T08:38:32.746Z,22.20
2018-08-18T08:41:01.253Z,19.60
2018-08-18T08:43:35.298Z,20.77
2018-08-18T08:46:03.937Z,19.03
2018-08-18T08:48:32.520Z,19.57
2018-08-18T08:51:01.017Z,17.57
2018-08-18T08:53:29.671Z,18.43
2018-08-18T08:55:58.136Z,18.13
2018-08-18T08:58:26.594Z,17.23
2018-08-18T09:00:55.067Z,18.80
2018-08-18T09:03:23.568Z,17.47
2018-08-18T09:05:52.237Z,17.17
2018-08-18T09:08:20.719Z,16.80
2018-08-18T09:10:49.229Z,16.83
2018-08-18T09:13:17.764Z,16.00
2018-08-18T09:15:46.220Z,16.50
2018-08-18T09:18:14.720Z,16.90
2018-08-18T09:20:47.056Z,16.17
2018-08-18T09:23:15.670Z,15.50
2018-08-18T09:25:44.176Z,14.97
2018-08-18T09:28:13.523Z,13.37
2018-08-18T09:30:42.019Z,13.60
2018-08-18T09:33:10.884Z,13.80
2018-08-18T09:36:04.549Z,12.47
2018-08-18T09:38:33.549Z,14.30
2018-08-18T09:41:02.136Z,13.60
2018-08-18T09:43:30.789Z,13.27
2018-08-18T09:45:59.199Z,12.13
2018-08-18T09:48:27.753Z,13.37
2018-08-18T09:50:57.556Z,13.90
2018-08-18T09:53:26.104Z,13.77
2018-08-18T09:55:54.582Z,12.93
2018-08-18T09:58:23.197Z,14.23
2018-08-18T10:00:51.747Z,12.47
2018-08-18T10:03:20.279Z,12.50
2018-08-18T10:05:48.933Z,11.80
2018-08-18T10:08:17.449Z,11.63
2018-08-18T10:10:46.066Z,12.23
2018-08-18T10:13:14.513Z,11.53
2018-08-18T10:15:42.996Z,11.77
2018-08-18T10:18:11.587Z,11.37
2018-08-18T10:20:45.331Z,10.00
2018-08-18T10:23:13.817Z,10.07
2018-08-18T10:25:42.303Z,9.20
2018-08-18T10:28:10.809Z,9.07
2018-08-18T10:30:39.268Z,9.50
2018-08-18T10:33:08.696Z,10.00
2018-08-18T10:35:37.257Z,10.30
2018-08-18T10:38:06.612Z,10.47
2018-08-18T10:40:35.180Z,9.83
2018-08-18T10:43:03.660Z,9.03
2018-08-18T10:45:32.260Z,10.47
2018-08-18T10:48:00.749Z,10.10
2018-08-18T10:50:40.545Z,8.50
2018-08-18T10:53:08.968Z,10.50
2018-08-18T10:55:38.385Z,10.03
2018-08-18T10:58:09.150Z,9.17
2018-08-18T11:00:38.254Z,10.47
2018-08-18T11:03:08.396Z,10.67
2018-08-18T11:05:36.963Z,11.17
2018-08-18T11:08:08.385Z,8.57
2018-08-18T11:10:38.428Z,9.50
2018-08-18T11:13:06.992Z,10.17
2018-08-18T11:15:35.548Z,9.50
2018-08-18T11:18:04.120Z,10.87
2018-08-18T11:20:34.084Z,9.30
2018-08-18T11:23:12.918Z,12.83
2018-08-18T11:25:47.857Z,8.90
2018-08-18T11:28:17.112Z,8.23
2018-08-18T11:30:45.676Z,9.20
2018-08-18T11:33:26.814Z,8.67
2018-08-18T11:35:55.333Z,10.60
2018-08-18T11:38:23.998Z,10.43
2018-08-18T11:40:52.485Z,9.30
2018-08-18T11:43:20.939Z,9.67
2018-08-18T11:45:49.461Z,9.30
2018-08-18T11:48:22.952Z,8.13
2018-08-18T11:50:52.911Z,8.37
2018-08-18T11:53:21.432Z,9.30
2018-08-18T11:55:49.916Z,7.70
2018-08-18T11:58:19.932Z,8.27
2018-08-18T12:00:53.266Z,8.93
2018-08-18T12:03:24.226Z,8.00
2018-08-18T12:05:57.884Z,8.50
2018-08-18T12:08:28.165Z,7.50
2018-08-18T12:11:00.301Z,6.93
2018-08-18T12:13:33.928Z,7.70
2018-08-18T12:16:06.757Z,6.60
2018-08-18T12:18:36.214Z,6.43
2018-08-18T12:21:05.297Z,6.80
2018-08-18T12:23:35.810Z,6.47
2018-08-18T12:26:08.224Z,6.13
2018-08-18T12:28:42.579Z,7.10
2018-08-18T12:31:13.264Z,7.57
2018-08-18T12:33:42.073Z,7.97
2018-08-18T12:36:10.607Z,6.97
2018-08-18T12:38:44.474Z,6.63
2018-08-18T12:41:13.020Z,6.50
2018-08-18T12:43:43.175Z,6.90
2018-08-18T12:46:13.588Z,6.97
2018-08-18T12:48:43.173Z,6.60
2018-08-18T12:51:12.804Z,5.77
2018-08-18T12:53:48.253Z,6.03
2018-08-18T12:56:22.064Z,5.43
2018-08-18T12:58:50.825Z,5.97
2018-08-18T13:01:36.754Z,6.33
2018-08-18T13:04:07.601Z,5.90
2018-08-18T13:06:45.706Z,6.50
2018-08-18T13:09:15.656Z,6.30
2018-08-18T13:11:45.622Z,6.30
2018-08-18T13:14:17.555Z,5.53
2018-08-18T13:16:46.072Z,5.40
2018-08-18T13:19:15.864Z,5.70
2018-08-18T13:21:44.313Z,7.07
2018-08-18T13:24:12.939Z,5.73
2018-08-18T13:26:41.489Z,5.57
2018-08-18T13:29:09.960Z,6.30
2018-08-18T13:31:42.513Z,5.03
2018-08-18T13:34:12.644Z,5.53
2018-08-18T13:36:42.656Z,5.90
2018-08-18T13:39:13.497Z,5.97
2018-08-18T13:41:42.772Z,5.67
2018-08-18T13:44:11.272Z,5.47
2018-08-18T13:46:45.124Z,6.37
2018-08-18T13:49:13.563Z,6.90
2018-08-18T13:51:42.080Z,6.83
2018-08-18T13:54:11.153Z,6.93
2018-08-18T13:56:40.785Z,6.63
2018-08-18T13:59:09.788Z,6.60
2018-08-18T14:02:13.476Z,6.80
2018-08-18T14:04:43.653Z,6.67
2018-08-18T14:07:12.687Z,6.50
2018-08-18T14:09:43.611Z,7.00
2018-08-18T14:12:15.672Z,7.30
2018-08-18T14:14:45.416Z,6.40
2018-08-18T14:17:15.212Z,7.17
2018-08-18T14:19:43.836Z,6.60
2018-08-18T14:22:12.693Z,7.10
2018-08-18T14:24:41.619Z,6.90
2018-08-18T14:27:14.860Z,6.73
2018-08-18T14:29:43.937Z,6.10
2018-08-18T14:32:17.725Z,6.13
2018-08-18T14:35:07.117Z,6.80
2018-08-18T14:37:39.723Z,6.50
2018-08-18T14:40:10.696Z,6.63
2018-08-18T14:42:39.475Z,7.10
2018-08-18T14:45:11.150Z,6.97
2018-08-18T14:47:41.232Z,7.07
2018-08-18T14:50:21.377Z,6.00
2018-08-18T14:52:49.936Z,5.67
2018-08-18T14:58:31.935Z,6.60
2018-08-18T15:01:05.815Z,7.50
2018-08-18T15:03:34.409Z,6.40
2018-08-18T15:06:03.056Z,6.27
2018-08-18T15:08:31.565Z,9.20
2018-08-18T15:11:00.030Z,5.93
2018-08-18T15:13:28.502Z,6.30
2018-08-18T15:15:56.980Z,6.73
2018-08-18T15:18:25.417Z,6.63
2018-08-18T15:20:53.881Z,9.00
2018-08-18T15:23:22.386Z,6.57
2018-08-18T15:25:50.835Z,7.00
2018-08-18T15:28:20.496Z,7.40
2018-08-18T15:30:52.476Z,7.20
2018-08-18T15:33:23.575Z,8.50
2018-08-18T15:35:52.184Z,7.87
2018-08-18T15:38:55.984Z,7.10
2018-08-18T15:41:25.292Z,6.97
2018-08-18T15:43:54.269Z,6.60
2018-08-18T15:46:23.275Z,6.30
2018-08-18T15:48:51.787Z,7.00
2018-08-18T15:51:20.309Z,6.60
2018-08-18T15:53:53.352Z,6.53
2018-08-18T15:56:23.156Z,7.13
2018-08-18T15:58:52.442Z,5.57
2018-08-18T16:01:23.189Z,6.10
2018-08-18T16:03:52.234Z,6.00
2018-08-18T16:06:20.760Z,6.63
2018-08-18T16:08:49.946Z,6.13
2018-08-18T16:11:18.440Z,6.13
2018-08-18T16:13:47.048Z,5.63
2018-08-18T16:16:16.408Z,6.23
2018-08-18T16:18:45.410Z,6.00
2018-08-18T16:21:19.245Z,6.80
2018-08-18T16:23:47.704Z,6.07
2018-08-18T16:26:16.305Z,6.77
2018-08-18T16:28:44.864Z,6.63
2018-08-18T16:31:13.669Z,6.20
2018-08-18T16:33:42.821Z,7.40
2018-08-18T16:36:11.850Z,6.50
2018-08-18T16:38:40.306Z,5.87
2018-08-18T16:41:08.851Z,6.20
2018-08-18T16:43:38.400Z,6.90
2018-08-18T16:46:21.147Z,5.73
2018-08-18T16:48:50.471Z,6.70
2018-08-18T16:51:19.144Z,6.20
2018-08-18T16:53:48.318Z,6.60
2018-08-18T16:56:25.510Z,6.40
2018-08-18T16:58:56.166Z,7.13
2018-08-18T17:01:25.095Z,6.70
2018-08-18T17:03:54.460Z,6.43
2018-08-18T17:06:22.933Z,5.90
2018-08-18T17:08:51.437Z,6.70
2018-08-18T17:11:20.289Z,6.63
2018-08-18T17:13:48.856Z,7.17
2018-08-18T17:16:17.376Z,7.37
2018-08-18T17:18:45.964Z,6.50
2018-08-18T17:21:15.082Z,6.57
2018-08-18T17:23:44.326Z,6.03
2018-08-18T17:26:12.980Z,6.80
2018-08-18T17:28:41.428Z,6.40
2018-08-18T17:31:09.963Z,7.30
2018-08-18T17:33:38.453Z,7.23
2018-08-18T17:36:07.033Z,6.90
2018-08-18T17:38:35.508Z,6.53
2018-08-18T17:41:04.006Z,7.10
2018-08-18T17:43:32.517Z,6.90
2018-08-18T17:46:05.024Z,6.43
2018-08-18T17:48:41.087Z,6.80
2018-08-18T17:51:10.440Z,7.27
2018-08-18T17:53:43.245Z,6.63
2018-08-18T17:56:12.374Z,6.57
2018-08-18T17:58:40.837Z,7.50
2018-08-18T18:01:09.365Z,8.70
2018-08-18T18:03:37.936Z,8.27
2018-08-18T18:06:06.573Z,8.40
2018-08-18T18:08:35.173Z,7.50
2018-08-18T18:11:05.012Z,7.23
2018-08-18T18:13:35.433Z,6.70
2018-08-18T18:16:11.040Z,9.53
2018-08-18T18:18:44.745Z,10.30
2018-08-18T18:21:13.306Z,8.90
2018-08-18T18:23:42.931Z,8.73
2018-08-18T18:26:11.412Z,7.20
2018-08-18T18:28:39.888Z,8.17
2018-08-18T18:31:08.832Z,7.10
2018-08-18T18:33:37.433Z,8.13
2018-08-18T18:36:06.203Z,8.30
2018-08-18T18:38:49.040Z,8.10
2018-08-18T18:41:17.552Z,8.13
2018-08-18T18:43:55.563Z,7.87
2018-08-18T18:46:24.041Z,8.10
2018-08-18T18:48:52.532Z,7.97
2018-08-18T18:51:21.149Z,8.60
2018-08-18T18:53:51.421Z,7.43
2018-08-18T18:56:20.275Z,7.53
2018-08-18T18:58:48.804Z,7.87
2018-08-18T19:01:19.195Z,8.30
2018-08-18T19:03:47.753Z,8.20
2018-08-18T19:06:16.259Z,7.63
2018-08-18T19:08:59.132Z,8.27
2018-08-18T19:11:28.220Z,7.87
2018-08-18T19:13:57.008Z,8.70
2018-08-18T19:16:25.566Z,8.70
2018-08-18T19:18:54.193Z,8.87
2018-08-18T19:21:23.012Z,9.10
2018-08-18T19:23:51.469Z,9.77
2018-08-18T19:26:19.925Z,10.77
2018-08-18T19:28:48.591Z,9.70
2018-08-18T19:31:17.348Z,9.60
2018-08-18T19:33:45.961Z,11.10
2018-08-18T19:36:14.441Z,8.97
2018-08-18T19:38:43.169Z,9.30
2018-08-18T19:41:11.631Z,8.90
2018-08-18T19:43:41.052Z,9.10
2018-08-18T19:46:09.573Z,9.67
2018-08-18T19:48:38.184Z,10.83
2018-08-18T19:51:06.813Z,10.40
2018-08-18T19:53:36.029Z,10.90
2018-08-18T19:56:08.397Z,10.80
2018-08-18T19:58:36.928Z,10.27
2018-08-18T20:01:05.823Z,10.70
2018-08-18T20:03:34.342Z,11.30
2018-08-18T20:06:07.095Z,10.30
2018-08-18T20:08:35.568Z,11.13
2018-08-18T20:11:04.065Z,11.00
2018-08-18T20:13:33.022Z,11.53
2018-08-18T20:16:03.277Z,11.77
2018-08-18T20:18:33.583Z,11.70
2018-08-18T20:21:02.001Z,11.30
2018-08-18T20:23:30.475Z,11.43
2018-08-18T20:25:59.209Z,11.97
2018-08-18T20:28:27.685Z,10.70
2018-08-18T20:30:57.092Z,10.70
2018-08-18T20:33:25.548Z,10.57
2018-08-18T20:35:54.077Z,11.93
2018-08-18T20:38:22.640Z,10.93
2018-08-18T20:40:51.196Z,11.30
2018-08-18T20:43:19.599Z,10.60
2018-08-18T20:45:49.795Z,10.83
2018-08-18T20:48:20.350Z,10.97
2018-08-18T20:50:49.212Z,11.70
2018-08-18T20:53:18.117Z,10.90
2018-08-18T20:56:02.764Z,9.97
2018-08-18T20:58:33.608Z,11.53
2018-08-18T21:01:02.642Z,10.73
2018-08-18T21:03:45.204Z,10.40
2018-08-18T21:06:14.719Z,11.37
2018-08-18T21:08:43.138Z,11.90
2018-08-18T21:11:11.738Z,10.70
2018-08-18T21:13:40.452Z,11.27
2018-08-18T21:16:09.489Z,11.70
2018-08-18T21:18:37.942Z,11.17
2018-08-18T21:21:32.771Z,10.43
2018-08-18T21:24:01.215Z,11.23
2018-08-18T21:26:29.796Z,10.47
2018-08-18T21:28:58.708Z,12.03
2018-08-18T21:31:37.535Z,9.83
2018-08-18T21:34:07.241Z,11.07
2018-08-18T21:36:36.016Z,12.13
2018-08-18T21:39:07.825Z,11.60
2018-08-18T21:41:36.988Z,12.20
2018-08-18T21:44:07.222Z,11.23
2018-08-18T21:46:35.802Z,11.23
2018-08-18T21:49:05.024Z,11.73
2018-08-18T21:51:33.551Z,11.90
2018-08-18T21:54:02.644Z,11.30
2018-08-18T21:56:37.107Z,11.07
2018-08-18T21:59:07.424Z,11.20
2018-08-18T22:01:36.202Z,11.37
2018-08-18T22:04:05.225Z,11.33
2018-08-18T22:06:33.705Z,12.67
2018-08-18T22:09:18.119Z,11.33
2018-08-18T22:11:47.014Z,11.87
2018-08-18T22:14:16.446Z,11.37
2018-08-18T22:17:03.592Z,11.10
2018-08-18T22:19:32.169Z,11.57
2018-08-18T22:22:00.620Z,11.20
2018-08-18T22:24:29.083Z,11.60
2018-08-18T22:26:57.660Z,12.30
2018-08-18T22:29:26.767Z,11.53
2018-08-18T22:31:55.261Z,12.17
2018-08-18T22:34:23.764Z,11.20
2018-08-18T22:36:57.406Z,10.77
2018-08-18T22:39:25.946Z,11.03
2018-08-18T22:41:54.712Z,11.33
2018-08-18T22:44:23.231Z,11.83
2018-08-18T22:46:51.778Z,11.80
2018-08-18T22:49:20.272Z,11.10
2018-08-18T22:51:48.716Z,11.97
2018-08-18T22:54:17.176Z,12.13
2018-08-18T22:56:49.941Z,11.23
2018-08-18T22:59:18.489Z,13.03
2018-08-18T23:01:47.040Z,12.47
2018-08-18T23:04:28.353Z,11.60
2018-08-18T23:06:57.503Z,12.63
2018-08-18T23:09:26.340Z,11.90
2018-08-18T23:11:56.460Z,12.90
2018-08-18T23:14:25.021Z,13.10
2018-08-18T23:16:53.501Z,13.70
2018-08-18T23:19:22.044Z,11.93
2018-08-18T23:21:50.665Z,12.90
2018-08-18T23:24:33.080Z,12.30
2018-08-18T23:27:02.233Z,13.30
2018-08-18T23:29:30.860Z,13.77
2018-08-18T23:31:59.967Z,13.23
2018-08-18T23:34:28.468Z,12.23
2018-08-18T23:36:57.032Z,12.00
2018-08-18T23:39:25.537Z,11.57
2018-08-18T23:42:05.608Z,11.67
2018-08-18T23:44:34.127Z,11.70
2018-08-18T23:47:02.605Z,11.50
2018-08-18T23:49:31.081Z,10.80
2018-08-18T23:51:59.617Z,11.83
2018-08-18T23:54:28.149Z,11.63
2018-08-18T23:56:56.649Z,10.90
2018-08-18T23:59:25.152Z,11.80
